| time (UTC) | temp F | wind direction | speed MPH | gust MPH | rain 1hr in | rain 24hr in | rain mn in | humidity % | barometer mb |
| 20260906044503 | 0 | 59 | 3.0 | 5.0 | 0.00 | 0.67 | 0.00 | 1015.4 | |
| 20260906044002 | 0 | 44 | 2.0 | 5.0 | 0.00 | 0.67 | 0.00 | 1015.3 | |
| 20260906043502 | 0 | 74 | 3.0 | 6.0 | 0.00 | 0.67 | 0.00 | 1015.3 | |
| 20260906043004 | 0 | 64 | 2.0 | 7.0 | 0.00 | 0.67 | 0.00 | 1015.4 | |
| 20260906042503 | 0 | 60 | 2.0 | 8.0 | 0.00 | 0.67 | 0.00 | 1015.3 | |
| 20260906042002 | 0 | 48 | 4.0 | 8.0 | 0.00 | 0.67 | 0.00 | 1015.3 | |
| 20260906041002 | 0 | 54 | 4.0 | 9.0 | 0.00 | 0.67 | 0.00 | 1015.3 | |
| 20260906040502 | 0 | 65 | 4.0 | 9.0 | 0.00 | 0.67 | 0.00 | 1015.3 | |
| 20260906040006 | 0 | 53 | 3.0 | 7.0 | 0.00 | 0.67 | 0.00 | 1015.3 | |
| 20260906035504 | 0 | 83 | 2.0 | 7.0 | 0.00 | 0.67 | 0.67 | 1015.4 | |
| 20260906035003 | 0 | 50 | 3.0 | 7.0 | 0.00 | 0.67 | 0.67 | 1015.4 | |
| 20260906034501 | 0 | 49 | 2.0 | 8.0 | 0.00 | 0.67 | 0.67 | 1015.4 | |
| 20260906034002 | 0 | 49 | 3.0 | 8.0 | 0.00 | 0.67 | 0.67 | 1015.4 | |
| 20260906033504 | 0 | 80 | 4.0 | 10.0 | 0.00 | 0.67 | 0.67 | 1015.4 | |
| 20260906033004 | 0 | 34 | 5.0 | 10.0 | 0.00 | 0.67 | 0.67 | 1015.4 | |
| 20260906032502 | 0 | 39 | 3.0 | 6.0 | 0.00 | 0.67 | 0.67 | 1015.4 | |
| 20260906032002 | 0 | 46 | 3.0 | 8.0 | 0.00 | 0.67 | 0.67 | 1015.4 | |
| 20260906031502 | 0 | 41 | 4.0 | 8.0 | 0.00 | 0.67 | 0.67 | 1015.4 | |
| 20260906031004 | 0 | 50 | 4.0 | 9.0 | 0.00 | 0.67 | 0.67 | 90 | 1015.3 |
| 20260906030502 | 0 | 75 | 4.0 | 9.0 | 0.00 | 0.67 | 0.67 | 1015.1 | |
| 20260906025504 | 73 | 78 | 3.0 | 9.0 | 0.00 | 0.67 | 0.67 | 90 | 1014.9 |
| 20260906025003 | 73 | 73 | 6.0 | 9.0 | 0.00 | 0.67 | 0.67 | 90 | 1014.9 |
| 20260906024502 | 73 | 76 | 4.0 | 9.0 | 0.00 | 0.67 | 0.67 | 90 | 1014.8 |
| 20260906024002 | 74 | 45 | 3.0 | 10.0 | 0.00 | 0.67 | 0.67 | 90 | 1014.8 |
| 20260906023503 | 74 | 61 | 4.0 | 11.0 | 0.00 | 0.67 | 0.67 | 90 | 1014.8 |
| 20260906023002 | 74 | 70 | 5.0 | 11.0 | 0.00 | 0.67 | 0.67 | 90 | 1014.7 |
| 20260906022004 | 0 | 52 | 4.0 | 10.0 | 0.00 | 0.67 | 0.67 | 90 | 1014.7 |
| 20260906021502 | 74 | 81 | 6.0 | 12.0 | 0.00 | 0.67 | 0.67 | 90 | 1014.6 |
| 20260906021002 | 75 | 59 | 7.0 | 14.0 | 0.00 | 0.67 | 0.67 | 1014.5 | |
| 20260906020503 | 75 | 79 | 6.0 | 14.0 | 0.00 | 0.67 | 0.67 | 90 | 1014.5 |
| 20260906020006 | 74 | 84 | 6.0 | 9.0 | 0.00 | 0.67 | 0.67 | 91 | 1014.6 |
| 20260906015502 | 74 | 34 | 5.0 | 11.0 | 0.00 | 0.67 | 0.67 | 91 | 1014.5 |
| 20260906015005 | 74 | 70 | 3.0 | 9.0 | 0.00 | 0.67 | 0.67 | 92 | 1014.3 |
| 20260906014502 | 74 | 86 | 4.0 | 9.0 | 0.00 | 0.67 | 0.67 | 92 | 1014.2 |
| 20260906014003 | 74 | 69 | 4.0 | 6.0 | 0.00 | 0.67 | 0.67 | 1014.1 | |
| 20260906013504 | 0 | 78 | 3.0 | 8.0 | 0.00 | 0.67 | 0.67 | 1014.1 | |
| 20260906013002 | 0 | 76 | 4.0 | 8.0 | 0.00 | 0.67 | 0.67 | 1 | 1014.0 |
| 20260906012502 | 0 | 59 | 4.0 | 7.0 | 0.00 | 0.67 | 0.67 | 1 | 1014.0 |
| 20260906012003 | 0 | 70 | 4.0 | 10.0 | 0.00 | 0.67 | 0.67 | 1013.9 | |
| 20260906011503 | 0 | 78 | 4.0 | 11.0 | 0.00 | 0.67 | 0.67 | 1013.7 | |
| 20260906011003 | 0 | 75 | 5.0 | 11.0 | 0.00 | 0.67 | 0.67 | 1 | 1013.6 |
| 20260906010503 | 0 | 69 | 4.0 | 8.0 | 0.00 | 0.67 | 0.67 | 1013.4 | |
| 20260906010006 | 0 | 62 | 4.0 | 8.0 | 0.00 | 0.67 | 0.67 | 1013.4 | |
| 20260906005503 | 0 | 73 | 3.0 | 7.0 | 0.00 | 0.67 | 0.67 | 1013.3 | |
| 20260906005003 | 0 | 49 | 4.0 | 8.0 | 0.00 | 0.67 | 0.67 | 1013.2 | |
| 20260906004503 | 75 | 331 | 4.0 | 7.0 | 0.00 | 0.67 | 0.67 | 1013.2 | |
| 20260906004002 | 75 | 32 | 0.0 | 1.0 | 0.00 | 0.67 | 0.67 | 1013.1 | |
| 20260906003502 | 0 | 32 | 0.0 | 1.0 | 0.00 | 0.67 | 0.67 | 1 | 1013.1 |
| 20260906003003 | 0 | 32 | 0.0 | 1.0 | 0.00 | 0.67 | 0.67 | 90 | 1013.0 |
| 20260906002503 | 75 | 32 | 0.0 | 1.0 | 0.00 | 0.67 | 0.67 | 90 | 1012.9 |
| 20260906002005 | 75 | 32 | 0.0 | 1.0 | 0.00 | 0.67 | 0.67 | 91 | 1012.7 |
| 20260906001502 | 75 | 32 | 0.0 | 1.0 | 0.00 | 0.67 | 0.67 | 91 | 1012.7 |
| 20260906001002 | 75 | 32 | 0.0 | 1.0 | 0.00 | 0.67 | 0.67 | 91 | 1012.7 |
| 20260906000502 | 76 | 32 | 0.0 | 0.0 | 0.00 | 0.67 | 0.67 | 91 | 1012.7 |
| 20260905235503 | 76 | 32 | 0.0 | 0.0 | 0.00 | 0.67 | 0.67 | 91 | 1013.0 |
| 20260905235003 | 76 | 32 | 0.0 | 0.0 | 0.00 | 0.67 | 0.67 | 91 | 1013.0 |
| 20260905234005 | 77 | 32 | 0.0 | 1.0 | 0.00 | 0.67 | 0.67 | 91 | 1013.0 |
| 20260905233503 | 78 | 32 | 0.0 | 0.0 | 0.00 | 0.67 | 0.67 | 90 | 1012.9 |
| 20260905233002 | 77 | 32 | 0.0 | 0.0 | 0.00 | 0.67 | 0.67 | 90 | 1012.8 |
| 20260905232502 | 77 | 32 | 0.0 | 0.0 | 0.00 | 0.67 | 0.67 | 90 | 1012.8 |
| 20260905232003 | 77 | 32 | 0.0 | 0.0 | 0.00 | 0.67 | 0.67 | 90 | 1012.8 |
| 20260905231502 | 76 | 32 | 0.0 | 1.0 | 0.00 | 0.67 | 0.67 | 90 | 1012.9 |
| 20260905231002 | 76 | 32 | 0.0 | 3.0 | 0.04 | 0.67 | 0.67 | 90 | 1012.8 |
| 20260905230502 | 75 | 32 | 1.0 | 3.0 | 0.04 | 0.67 | 0.67 | 90 | 1012.6 |
| 20260905225501 | 75 | 32 | 0.0 | 3.0 | 0.04 | 0.67 | 0.67 | 90 | 1012.5 |
| 20260905225002 | 75 | 32 | 2.0 | 3.0 | 0.22 | 0.67 | 0.67 | 90 | 1012.6 |
| 20260905224501 | 74 | 32 | 1.0 | 3.0 | 0.49 | 0.67 | 0.67 | 90 | 1012.6 |
| 20260905224006 | 74 | 32 | 0.0 | 2.0 | 0.62 | 0.67 | 0.67 | 90 | 1012.6 |
| 20260905223502 | 73 | 156 | 0.0 | 1.0 | 0.67 | 0.67 | 0.67 | 90 | 1012.5 |
| 20260905223002 | 72 | 156 | 0.0 | 3.0 | 0.67 | 0.67 | 0.67 | 90 | 1012.5 |
| 20260905222503 | 71 | 160 | 1.0 | 3.0 | 0.67 | 0.67 | 0.67 | 90 | 1012.7 |
| 20260905222001 | 71 | 234 | 0.0 | 2.0 | 0.67 | 0.67 | 0.67 | 90 | 1013.0 |
| 20260905221502 | 70 | 156 | 0.0 | 10.0 | 0.67 | 0.67 | 0.67 | 91 | 1013.0 |
| 20260905221003 | 70 | 71 | 7.0 | 10.0 | 0.63 | 0.63 | 0.63 | 91 | 1012.8 |
| 20260905220502 | 69 | 92 | 3.0 | 9.0 | 0.63 | 0.63 | 0.63 | 92 | 1012.5 |
| 20260905220005 | 69 | 264 | 2.0 | 34.0 | 0.63 | 0.63 | 0.63 | 92 | 1012.4 |
| 20260905215502 | 70 | 259 | 6.0 | 41.0 | 0.61 | 0.61 | 0.61 | 90 | 1013.2 |
| 20260905214001 | 85 | 44 | 9.0 | 17.0 | 0.03 | 0.03 | 0.03 | 65 | 1012.7 |
| 20260905213501 | 88 | 63 | 9.0 | 17.0 | 0.00 | 0.00 | 0.00 | 62 | 1012.4 |
| 20260905213001 | 89 | 337 | 4.0 | 10.0 | 0.00 | 0.00 | 0.00 | 65 | 1012.0 |
| 20260905212504 | 89 | 303 | 7.0 | 10.0 | 0.00 | 0.00 | 0.00 | 65 | 1011.8 |
| 20260905212002 | 88 | 275 | 6.0 | 11.0 | 0.00 | 0.00 | 0.00 | 66 | 1012.0 |
| 20260905211501 | 88 | 294 | 7.0 | 11.0 | 0.00 | 0.00 | 0.00 | 63 | 1012.3 |
| 20260905211001 | 88 | 321 | 6.0 | 8.0 | 0.00 | 0.00 | 0.00 | 65 | 1012.2 |
| 20260905210501 | 88 | 286 | 5.0 | 10.0 | 0.00 | 0.00 | 0.00 | 65 | 1012.1 |
| 20260905210005 | 89 | 290 | 5.0 | 10.0 | 0.00 | 0.00 | 0.00 | 67 | 1012.0 |
| 20260905205502 | 89 | 295 | 4.0 | 8.0 | 0.00 | 0.00 | 0.00 | 65 | 1012.0 |
| 20260905205001 | 89 | 270 | 6.0 | 8.0 | 0.00 | 0.00 | 0.00 | 65 | 1012.1 |
| 20260905204502 | 89 | 282 | 5.0 | 8.0 | 0.00 | 0.00 | 0.00 | 66 | 1012.2 |
| 20260905204002 | 89 | 328 | 1.0 | 9.0 | 0.00 | 0.00 | 0.00 | 66 | 1012.2 |
| 20260905203501 | 88 | 289 | 5.0 | 9.0 | 0.00 | 0.00 | 0.00 | 67 | 1012.3 |
| 20260905203001 | 88 | 283 | 6.0 | 8.0 | 0.00 | 0.00 | 0.00 | 65 | 1012.3 |
| 20260905202501 | 88 | 290 | 4.0 | 7.0 | 0.00 | 0.00 | 0.00 | 67 | 1012.4 |
| 20260905202001 | 88 | 294 | 5.0 | 7.0 | 0.00 | 0.00 | 0.00 | 67 | 1012.5 |
| 20260905201502 | 88 | 271 | 4.0 | 7.0 | 0.00 | 0.00 | 0.00 | 66 | 1012.6 |
| 20260905201003 | 89 | 296 | 4.0 | 6.0 | 0.00 | 0.00 | 0.00 | 65 | 1012.5 |
| 20260905200501 | 89 | 349 | 2.0 | 10.0 | 0.00 | 0.00 | 0.00 | 66 | 1012.6 |
| 20260905200003 | 89 | 290 | 2.0 | 10.0 | 0.00 | 0.00 | 0.00 | 65 | 1012.8 |
| 20260905195502 | 89 | 302 | 5.0 | 8.0 | 0.00 | 0.00 | 0.00 | 65 | 1012.8 |
| 20260905195004 | 88 | 344 | 4.0 | 9.0 | 0.00 | 0.00 | 0.00 | 67 | 1012.8 |
| 20260905194501 | 88 | 45 | 2.0 | 9.0 | 0.00 | 0.00 | 0.00 | 69 | 1012.7 |
| 20260905194001 | 87 | 286 | 6.0 | 9.0 | 0.00 | 0.00 | 0.00 | 67 | 1012.8 |
| 20260905193502 | 87 | 297 | 4.0 | 8.0 | 0.00 | 0.00 | 0.00 | 68 | 1013.0 |
| 20260905193001 | 88 | 281 | 5.0 | 8.0 | 0.00 | 0.00 | 0.00 | 66 | 1013.0 |
| 20260905192502 | 88 | 23 | 3.0 | 7.0 | 0.00 | 0.00 | 0.00 | 67 | 1013.1 |
| 20260905192002 | 88 | 302 | 3.0 | 6.0 | 0.00 | 0.00 | 0.00 | 65 | 1013.0 |
| 20260905191501 | 88 | 288 | 3.0 | 11.0 | 0.00 | 0.00 | 0.00 | 65 | 1013.0 |
| 20260905191002 | 88 | 281 | 7.0 | 11.0 | 0.00 | 0.00 | 0.00 | 65 | 1013.1 |
| 20260905190004 | 89 | 302 | 4.0 | 10.0 | 0.00 | 0.00 | 0.00 | 65 | 1013.2 |
| 20260905185002 | 89 | 280 | 7.0 | 11.0 | 0.00 | 0.00 | 0.00 | 63 | 1013.3 |
| 20260905184501 | 89 | 287 | 7.0 | 10.0 | 0.00 | 0.00 | 0.00 | 63 | 1013.4 |
| 20260905184001 | 88 | 251 | 4.0 | 12.0 | 0.00 | 0.00 | 0.00 | 62 | 1013.4 |
| 20260905183501 | 88 | 263 | 6.0 | 12.0 | 0.00 | 0.00 | 0.00 | 62 | 1013.5 |
| 20260905183002 | 88 | 272 | 5.0 | 11.0 | 0.00 | 0.00 | 0.00 | 63 | 1013.6 |
| 20260905182501 | 88 | 222 | 6.0 | 10.0 | 0.00 | 0.00 | 0.00 | 62 | 1013.5 |
| 20260905182002 | 87 | 268 | 6.0 | 12.0 | 0.00 | 0.00 | 0.00 | 62 | 1013.7 |
| 20260905180005 | 87 | 241 | 7.0 | 12.0 | 0.00 | 0.00 | 0.00 | 61 | 1013.8 |
| 20260905175502 | 87 | 220 | 8.0 | 10.0 | 0.00 | 0.00 | 0.00 | 61 | 1013.8 |
| 20260905175002 | 87 | 303 | 6.0 | 10.0 | 0.00 | 0.00 | 0.00 | 62 | 1013.8 |
| 20260905174502 | 86 | 232 | 6.0 | 10.0 | 0.00 | 0.00 | 0.00 | 63 | 1013.9 |
| 20260905174001 | 86 | 256 | 6.0 | 9.0 | 0.00 | 0.00 | 0.00 | 62 | 1013.9 |
| 20260905173501 | 86 | 167 | 3.0 | 10.0 | 0.00 | 0.00 | 0.00 | 64 | 1014.1 |
| 20260905173001 | 86 | 255 | 7.0 | 10.0 | 0.00 | 0.00 | 0.00 | 61 | 1014.2 |
| 20260905172503 | 85 | 238 | 6.0 | 8.0 | 0.00 | 0.00 | 0.00 | 64 | 1014.2 |
| 20260905172004 | 84 | 266 | 4.0 | 9.0 | 0.00 | 0.00 | 0.00 | 66 | 1014.3 |
| 20260905171501 | 84 | 293 | 5.0 | 10.0 | 0.00 | 0.00 | 0.00 | 65 | 1014.4 |
| 20260905171001 | 84 | 234 | 6.0 | 10.0 | 0.00 | 0.00 | 0.00 | 64 | 1014.5 |
| 20260905170501 | 83 | 193 | 5.0 | 9.0 | 0.00 | 0.00 | 0.00 | 65 | 1014.6 |
| 20260905170004 | 83 | 206 | 6.0 | 9.0 | 0.00 | 0.00 | 0.00 | 64 | 1014.7 |
| 20260905165501 | 83 | 162 | 5.0 | 9.0 | 0.00 | 0.00 | 0.00 | 64 | 1014.8 |
| 20260905165003 | 83 | 136 | 6.0 | 10.0 | 0.00 | 0.00 | 0.00 | 64 | 1014.8 |
| 20260905164501 | 83 | 210 | 6.0 | 10.0 | 0.00 | 0.00 | 0.00 | 65 | 1014.8 |
| 20260905164002 | 83 | 220 | 5.0 | 10.0 | 0.00 | 0.00 | 0.00 | 64 | 1014.9 |
| 20260905163501 | 83 | 229 | 5.0 | 10.0 | 0.00 | 0.00 | 0.00 | 65 | 1014.9 |
| 20260905163001 | 82 | 165 | 5.0 | 11.0 | 0.00 | 0.00 | 0.00 | 66 | 1014.9 |
| 20260905162501 | 82 | 185 | 6.0 | 11.0 | 0.00 | 0.00 | 0.00 | 67 | 1014.9 |
| 20260905162003 | 82 | 221 | 5.0 | 13.0 | 0.00 | 0.00 | 0.00 | 67 | 1014.9 |
| 20260905161502 | 82 | 204 | 6.0 | 13.0 | 0.00 | 0.00 | 0.00 | 66 | 1014.9 |
| 20260905161001 | 82 | 163 | 5.0 | 12.0 | 0.00 | 0.00 | 0.00 | 68 | 1014.9 |
| 20260905160501 | 82 | 256 | 7.0 | 12.0 | 0.00 | 0.00 | 0.00 | 67 | 1014.8 |
| 20260905160004 | 82 | 240 | 7.0 | 11.0 | 0.00 | 0.00 | 0.00 | 67 | 1014.8 |
| 20260905155503 | 82 | 236 | 5.0 | 11.0 | 0.00 | 0.00 | 0.00 | 67 | 1014.8 |
| 20260905155001 | 82 | 182 | 6.0 | 10.0 | 0.00 | 0.00 | 0.00 | 66 | 1014.7 |
| 20260905154501 | 82 | 196 | 5.0 | 12.0 | 0.00 | 0.00 | 0.00 | 67 | 1014.8 |
| 20260905154002 | 81 | 172 | 6.0 | 14.0 | 0.00 | 0.00 | 0.00 | 68 | 1014.6 |
| 20260905153501 | 81 | 184 | 7.0 | 14.0 | 0.00 | 0.00 | 0.00 | 69 | 1014.7 |
| 20260905152501 | 80 | 148 | 5.0 | 13.0 | 0.00 | 0.00 | 0.00 | 70 | 1014.7 |
| 20260905152003 | 79 | 241 | 6.0 | 10.0 | 0.00 | 0.00 | 0.00 | 69 | 1014.7 |
| 20260905151502 | 79 | 197 | 6.0 | 14.0 | 0.00 | 0.00 | 0.00 | 70 | 1014.8 |
| 20260905151001 | 79 | 238 | 8.0 | 14.0 | 0.00 | 0.00 | 0.00 | 70 | 1014.9 |
| 20260905150503 | 79 | 237 | 9.0 | 12.0 | 0.00 | 0.00 | 0.00 | 70 | 1014.9 |
| 20260905150004 | 79 | 133 | 6.0 | 13.0 | 0.00 | 0.00 | 0.00 | 71 | 1014.9 |
| 20260905145001 | 78 | 186 | 8.0 | 13.0 | 0.00 | 0.00 | 0.00 | 72 | 1014.7 |
| 20260905144501 | 78 | 166 | 7.0 | 11.0 | 0.00 | 0.00 | 0.00 | 73 | 1014.8 |
| 20260905144002 | 77 | 196 | 6.0 | 15.0 | 0.00 | 0.00 | 0.00 | 75 | 1014.8 |
| 20260905143502 | 77 | 216 | 8.0 | 15.0 | 0.00 | 0.00 | 0.00 | 75 | 1014.7 |
| 20260905143001 | 76 | 129 | 10.0 | 14.0 | 0.00 | 0.00 | 0.00 | 75 | 1014.7 |
| 20260905142501 | 76 | 168 | 5.0 | 14.0 | 0.00 | 0.00 | 0.00 | 75 | 1014.6 |
| 20260905142005 | 76 | 172 | 9.0 | 15.0 | 0.00 | 0.00 | 0.00 | 75 | 1014.7 |
| 20260905141505 | 76 | 137 | 10.0 | 15.0 | 0.00 | 0.00 | 0.00 | 76 | 1014.6 |
| 20260905141002 | 76 | 169 | 5.0 | 16.0 | 0.00 | 0.00 | 0.00 | 77 | 1014.6 |
| 20260905140004 | 75 | 162 | 8.0 | 14.0 | 0.00 | 0.00 | 0.00 | 77 | 1014.7 |
| 20260905135001 | 75 | 140 | 9.0 | 15.0 | 0.00 | 0.00 | 0.00 | 78 | 1014.7 |
| 20260905134500 | 75 | 160 | 5.0 | 12.0 | 0.00 | 0.00 | 0.00 | 79 | 1014.6 |
| 20260905134002 | 74 | 183 | 6.0 | 12.0 | 0.00 | 0.00 | 0.00 | 79 | 1014.6 |
| 20260905133502 | 74 | 162 | 8.0 | 14.0 | 0.00 | 0.00 | 0.00 | 79 | 1014.8 |
| 20260905133001 | 74 | 179 | 8.0 | 13.0 | 0.00 | 0.00 | 0.00 | 79 | 1014.8 |
| 20260905132501 | 74 | 191 | 5.0 | 11.0 | 0.00 | 0.00 | 0.00 | 81 | 1014.9 |
| 20260905132002 | 73 | 183 | 7.0 | 12.0 | 0.00 | 0.00 | 0.00 | 80 | 1015.0 |
| 20260905131503 | 73 | 129 | 6.0 | 12.0 | 0.00 | 0.00 | 0.00 | 81 | 1014.9 |
| 20260905131001 | 73 | 139 | 7.0 | 9.0 | 0.00 | 0.00 | 0.00 | 81 | 1014.9 |
| 20260905130502 | 73 | 160 | 5.0 | 12.0 | 0.00 | 0.00 | 0.00 | 82 | 1014.9 |
| 20260905130005 | 72 | 215 | 8.0 | 12.0 | 0.00 | 0.00 | 0.00 | 82 | 1015.0 |
| 20260905125501 | 72 | 169 | 7.0 | 10.0 | 0.00 | 0.00 | 0.00 | 83 | 1015.0 |
| 20260905125001 | 72 | 174 | 7.0 | 10.0 | 0.00 | 0.00 | 0.00 | 83 | 1015.1 |
| 20260905124500 | 72 | 136 | 2.0 | 10.0 | 0.00 | 0.00 | 0.00 | 84 | 1015.0 |
| 20260905124002 | 71 | 169 | 6.0 | 10.0 | 0.00 | 0.00 | 0.00 | 84 | 1014.9 |
| 20260905123501 | 71 | 150 | 3.0 | 7.0 | 0.00 | 0.00 | 0.00 | 85 | 1015.0 |
| 20260905123002 | 71 | 113 | 2.0 | 6.0 | 0.00 | 0.00 | 0.00 | 86 | 1014.9 |
| 20260905122501 | 71 | 153 | 3.0 | 6.0 | 0.00 | 0.00 | 0.00 | 85 | 1014.9 |
| 20260905122002 | 70 | 131 | 4.0 | 7.0 | 0.00 | 0.00 | 0.00 | 86 | 1015.0 |
| 20260905121501 | 70 | 112 | 4.0 | 7.0 | 0.00 | 0.00 | 0.00 | 86 | 1014.9 |
| 20260905121001 | 70 | 136 | 4.0 | 6.0 | 0.00 | 0.00 | 0.00 | 87 | 1014.7 |
| 20260905120501 | 70 | 135 | 3.0 | 8.0 | 0.00 | 0.00 | 0.00 | 87 | 1014.8 |
| 20260905115502 | 70 | 168 | 3.0 | 8.0 | 0.00 | 0.00 | 0.00 | 87 | 1014.6 |
| 20260905115001 | 70 | 130 | 4.0 | 10.0 | 0.00 | 0.00 | 0.00 | 87 | 1014.6 |
| 20260905114501 | 70 | 134 | 5.0 | 10.0 | 0.00 | 0.00 | 0.00 | 87 | 1014.7 |
| 20260905113502 | 70 | 134 | 6.0 | 10.0 | 0.00 | 0.00 | 0.00 | 86 | 1014.7 |
| 20260905113001 | 70 | 142 | 6.0 | 10.0 | 0.00 | 0.00 | 0.00 | 86 | 1014.8 |
| 20260905112501 | 70 | 147 | 6.0 | 10.0 | 0.00 | 0.00 | 0.00 | 86 | 1014.7 |
| 20260905112003 | 70 | 138 | 4.0 | 9.0 | 0.00 | 0.00 | 0.00 | 86 | 1014.7 |
| 20260905111512 | 70 | 138 | 5.0 | 9.0 | 0.00 | 0.00 | 0.00 | 86 | 1014.7 |
| 20260905111001 | 70 | 123 | 3.0 | 9.0 | 0.00 | 0.00 | 0.00 | 86 | 1014.7 |
| 20260905110501 | 70 | 144 | 4.0 | 8.0 | 0.00 | 0.00 | 0.00 | 86 | 1014.8 |
| 20260905110005 | 70 | 65 | 2.0 | 11.0 | 0.00 | 0.00 | 0.00 | 86 | 1014.8 |
| 20260905105001 | 70 | 151 | 6.0 | 11.0 | 0.00 | 0.00 | 0.00 | 86 | 1014.6 |
| 20260905104501 | 70 | 121 | 5.0 | 11.0 | 0.00 | 0.00 | 0.00 | 86 | 1014.8 |
| 20260905104001 | 71 | 137 | 3.0 | 9.0 | 0.00 | 0.00 | 0.00 | 85 | 1014.8 |
| 20260905103001 | 71 | 125 | 6.0 | 10.0 | 0.00 | 0.00 | 0.00 | 85 | 1014.7 |
| 20260905102502 | 71 | 128 | 5.0 | 9.0 | 0.00 | 0.00 | 0.00 | 85 | 1014.7 |
| 20260905102001 | 71 | 96 | 4.0 | 16.0 | 0.00 | 0.00 | 0.00 | 84 | 1014.8 |
| 20260905101502 | 72 | 64 | 4.0 | 16.0 | 0.00 | 0.00 | 0.00 | 83 | 1014.8 |
| 20260905101002 | 73 | 123 | 9.0 | 16.0 | 0.00 | 0.00 | 0.00 | 83 | 1014.8 |
| 20260905095502 | 75 | 153 | 0.0 | 1.0 | 0.00 | 0.00 | 0.00 | 90 | 1013.7 |
| 20260905095000 | 75 | 154 | 1.0 | 1.0 | 0.00 | 0.00 | 0.00 | 90 | 1013.7 |
| 20260905094500 | 75 | 155 | 0.0 | 1.0 | 0.00 | 0.00 | 0.00 | 90 | 1013.7 |
| 20260905094003 | 74 | 155 | 0.0 | 1.0 | 0.00 | 0.00 | 0.00 | 90 | 1013.7 |
| 20260905093500 | 74 | 219 | 0.0 | 0.0 | 0.00 | 0.00 | 0.00 | 90 | 1013.7 |
| 20260905093000 | 74 | 219 | 0.0 | 0.0 | 0.00 | 0.00 | 0.00 | 90 | 1013.8 |
| 20260905092000 | 75 | 219 | 0.0 | 0.0 | 0.00 | 0.00 | 0.00 | 89 | 1013.7 |
| 20260905091500 | 75 | 219 | 0.0 | 1.0 | 0.00 | 0.00 | 0.00 | 89 | 1013.7 |
| 20260905091002 | 75 | 219 | 0.0 | 1.0 | 0.00 | 0.00 | 0.00 | 89 | 1013.6 |
| 20260905090500 | 75 | 219 | 0.0 | 0.0 | 0.00 | 0.00 | 0.00 | 88 | 1013.5 |
| 20260905090003 | 76 | 219 | 0.0 | 1.0 | 0.00 | 0.00 | 0.00 | 88 | 1013.6 |
| 20260905085503 | 76 | 219 | 0.0 | 1.0 | 0.00 | 0.00 | 0.00 | 88 | 1013.5 |
| 20260905085001 | 76 | 219 | 0.0 | 1.0 | 0.00 | 0.00 | 0.00 | 88 | 1013.5 |
| 20260905084500 | 76 | 219 | 0.0 | 1.0 | 0.00 | 0.00 | 0.00 | 88 | 1013.5 |
| 20260905084001 | 76 | 198 | 0.0 | 0.0 | 0.00 | 0.00 | 0.00 | 88 | 1013.5 |
| 20260905083500 | 76 | 198 | 0.0 | 1.0 | 0.00 | 0.00 | 0.00 | 88 | 1013.7 |
| 20260905083001 | 76 | 198 | 0.0 | 1.0 | 0.00 | 0.00 | 0.00 | 88 | 1013.6 |
| 20260905082500 | 76 | 198 | 0.0 | 1.0 | 0.00 | 0.00 | 0.00 | 88 | 1013.5 |
| 20260905082000 | 76 | 198 | 0.0 | 1.0 | 0.00 | 0.00 | 0.00 | 88 | 1013.5 |
| 20260905081500 | 76 | 261 | 0.0 | 0.0 | 0.00 | 0.00 | 0.00 | 87 | 1013.5 |
| 20260905081001 | 77 | 261 | 0.0 | 1.0 | 0.00 | 0.00 | 0.00 | 87 | 1013.5 |
| 20260905080500 | 77 | 261 | 0.0 | 1.0 | 0.00 | 0.00 | 0.00 | 87 | 1013.4 |
| 20260905080003 | 77 | 261 | 0.0 | 1.0 | 0.00 | 0.00 | 0.00 | 87 | 1013.4 |
| 20260905075000 | 77 | 262 | 0.0 | 0.0 | 0.00 | 0.00 | 0.00 | 87 | 1013.4 |
| 20260905074500 | 77 | 262 | 0.0 | 1.0 | 0.00 | 0.00 | 0.00 | 87 | 1013.4 |
| 20260905074000 | 77 | 262 | 0.0 | 0.0 | 0.00 | 0.00 | 0.00 | 87 | 1013.3 |
| 20260905073000 | 78 | 262 | 1.0 | 2.0 | 0.00 | 0.00 | 0.00 | 85 | 1013.1 |
| 20260905072000 | 78 | 252 | 1.0 | 3.0 | 0.00 | 0.00 | 0.00 | 85 | 1013.1 |
| 20260905071500 | 78 | 259 | 1.0 | 2.0 | 0.00 | 0.00 | 0.00 | 85 | 1013.0 |
| 20260905071000 | 78 | 236 | 0.0 | 5.0 | 0.00 | 0.00 | 0.00 | 85 | 1012.9 |
| 20260905070501 | 78 | 226 | 2.0 | 5.0 | 0.00 | 0.00 | 0.00 | 86 | 1012.8 |
| 20260905070003 | 78 | 226 | 2.0 | 4.0 | 0.00 | 0.00 | 0.00 | 86 | 1012.5 |
| 20260905065501 | 77 | 206 | 2.0 | 4.0 | 0.00 | 0.00 | 0.00 | 86 | 1012.5 |
| 20260905065005 | 77 | 193 | 3.0 | 4.0 | 0.00 | 0.00 | 0.00 | 87 | 1012.5 |
| 20260905064000 | 77 | 203 | 2.0 | 4.0 | 0.00 | 0.00 | 0.00 | 87 | 1012.9 |
| 20260905063501 | 77 | 234 | 2.0 | 4.0 | 0.00 | 0.00 | 0.00 | 88 | 1012.9 |
| 20260905063001 | 77 | 195 | 2.0 | 4.0 | 0.00 | 0.00 | 0.00 | 88 | 1013.0 |
| 20260905062500 | 77 | 217 | 2.0 | 3.0 | 0.00 | 0.00 | 0.00 | 88 | 1013.2 |
| 20260905061500 | 77 | 219 | 1.0 | 2.0 | 0.00 | 0.00 | 0.00 | 89 | 1013.4 |
| 20260905061000 | 77 | 201 | 1.0 | 2.0 | 0.00 | 0.00 | 0.00 | 89 | 1013.4 |
| 20260905060004 | 77 | 165 | 1.0 | 2.0 | 0.00 | 0.00 | 0.00 | 89 | 1013.6 |
| 20260905055459 | 77 | 210 | 1.0 | 2.0 | 0.00 | 0.00 | 0.00 | 89 | 1013.7 |
| 20260905055001 | 77 | 160 | 1.0 | 2.0 | 0.00 | 0.00 | 0.00 | 89 | 1013.7 |
| 20260905054500 | 77 | 161 | 2.0 | 2.0 | 0.00 | 0.00 | 0.00 | 89 | 1013.6 |
| 20260905054001 | 78 | 165 | 2.0 | 4.0 | 0.00 | 0.00 | 0.00 | 89 | 1013.7 |
| 20260905053501 | 78 | 162 | 2.0 | 4.0 | 0.00 | 0.00 | 0.00 | 89 | 1013.7 |
| 20260905053002 | 78 | 172 | 2.0 | 4.0 | 0.00 | 0.00 | 0.00 | 89 | 1013.7 |
| 20260905052500 | 78 | 207 | 2.0 | 4.0 | 0.00 | 0.00 | 0.00 | 89 | 1013.8 |
| 20260905051503 | 78 | 167 | 2.0 | 3.0 | 0.00 | 0.00 | 0.00 | 89 | 1013.9 |
| 20260905051000 | 78 | 167 | 2.0 | 3.0 | 0.00 | 0.00 | 0.00 | 89 | 1013.9 |
| 20260905050500 | 78 | 188 | 2.0 | 3.0 | 0.00 | 0.00 | 0.00 | 88 | 1014.0 |
| 20260905050004 | 78 | 166 | 2.0 | 3.0 | 0.00 | 0.00 | 0.00 | 89 | 1014.0 |
| 20260905045505 | 78 | 221 | 1.0 | 3.0 | 0.00 | 0.00 | 0.00 | 89 | 1013.9 |
| 20260905045002 | 78 | 184 | 2.0 | 3.0 | 0.00 | 0.00 | 0.00 | 89 | 1013.9 |